sensor_id;sensor_type;location;lat;lon;timestamp;P1;durP1;ratioP1;P2;durP2;ratioP2
10383;SDS011;5238;43.508;4.980;2023-04-24T00:02:22;1.27;;;1.02;;
10383;SDS011;5238;43.508;4.980;2023-04-24T00:05:03;4.07;;;1.20;;
10383;SDS011;5238;43.508;4.980;2023-04-24T00:07:44;3.45;;;1.23;;
10383;SDS011;5238;43.508;4.980;2023-04-24T00:10:18;3.67;;;0.93;;
10383;SDS011;5238;43.508;4.980;2023-04-24T00:12:53;1.48;;;0.80;;
10383;SDS011;5238;43.508;4.980;2023-04-24T00:15:34;3.50;;;1.00;;
10383;SDS011;5238;43.508;4.980;2023-04-24T00:18:01;3.45;;;1.20;;
10383;SDS011;5238;43.508;4.980;2023-04-24T00:20:30;3.13;;;1.00;;
10383;SDS011;5238;43.508;4.980;2023-04-24T00:23:09;2.60;;;0.90;;
10383;SDS011;5238;43.508;4.980;2023-04-24T00:25:38;1.67;;;0.88;;
10383;SDS011;5238;43.508;4.980;2023-04-24T00:28:19;1.63;;;0.80;;
10383;SDS011;5238;43.508;4.980;2023-04-24T00:30:56;1.83;;;0.90;;
10383;SDS011;5238;43.508;4.980;2023-04-24T00:33:26;2.28;;;1.30;;
10383;SDS011;5238;43.508;4.980;2023-04-24T00:36:07;2.28;;;1.30;;
10383;SDS011;5238;43.508;4.980;2023-04-24T00:41:42;4.18;;;1.20;;
10383;SDS011;5238;43.508;4.980;2023-04-24T00:44:13;2.83;;;1.33;;
10383;SDS011;5238;43.508;4.980;2023-04-24T00:46:54;2.25;;;1.30;;
10383;SDS011;5238;43.508;4.980;2023-04-24T00:49:31;1.77;;;1.08;;
10383;SDS011;5238;43.508;4.980;2023-04-24T00:52:06;3.78;;;1.15;;
10383;SDS011;5238;43.508;4.980;2023-04-24T00:54:53;2.35;;;0.95;;
10383;SDS011;5238;43.508;4.980;2023-04-24T00:57:28;3.22;;;0.80;;
10383;SDS011;5238;43.508;4.980;2023-04-24T00:59:57;1.30;;;0.80;;
10383;SDS011;5238;43.508;4.980;2023-04-24T01:02:30;1.65;;;1.00;;
10383;SDS011;5238;43.508;4.980;2023-04-24T01:05:16;2.17;;;0.82;;
10383;SDS011;5238;43.508;4.980;2023-04-24T01:07:44;1.38;;;0.90;;
10383;SDS011;5238;43.508;4.980;2023-04-24T01:10:15;3.38;;;1.10;;
10383;SDS011;5238;43.508;4.980;2023-04-24T01:12:46;3.75;;;1.38;;
10383;SDS011;5238;43.508;4.980;2023-04-24T01:15:16;2.15;;;1.23;;
10383;SDS011;5238;43.508;4.980;2023-04-24T01:17:52;2.08;;;1.17;;
10383;SDS011;5238;43.508;4.980;2023-04-24T01:20:34;4.82;;;1.30;;
10383;SDS011;5238;43.508;4.980;2023-04-24T01:23:07;1.70;;;1.15;;
10383;SDS011;5238;43.508;4.980;2023-04-24T01:25:44;3.63;;;1.23;;
10383;SDS011;5238;43.508;4.980;2023-04-24T01:28:42;1.58;;;0.98;;
10383;SDS011;5238;43.508;4.980;2023-04-24T01:31:17;3.15;;;1.38;;
10383;SDS011;5238;43.508;4.980;2023-04-24T01:33:59;2.45;;;1.42;;
10383;SDS011;5238;43.508;4.980;2023-04-24T01:36:49;2.63;;;1.40;;
10383;SDS011;5238;43.508;4.980;2023-04-24T01:39:35;2.28;;;1.15;;
10383;SDS011;5238;43.508;4.980;2023-04-24T01:42:16;4.50;;;1.48;;
10383;SDS011;5238;43.508;4.980;2023-04-24T01:44:56;2.45;;;1.10;;
10383;SDS011;5238;43.508;4.980;2023-04-24T01:47:48;1.67;;;1.10;;
10383;SDS011;5238;43.508;4.980;2023-04-24T01:50:16;1.38;;;1.00;;
10383;SDS011;5238;43.508;4.980;2023-04-24T01:52:43;2.55;;;1.05;;
10383;SDS011;5238;43.508;4.980;2023-04-24T01:55:40;3.60;;;1.20;;
10383;SDS011;5238;43.508;4.980;2023-04-24T01:58:21;2.28;;;1.40;;
10383;SDS011;5238;43.508;4.980;2023-04-24T02:00:57;2.00;;;1.10;;
10383;SDS011;5238;43.508;4.980;2023-04-24T02:03:47;3.55;;;1.00;;
10383;SDS011;5238;43.508;4.980;2023-04-24T02:06:21;3.20;;;1.17;;
10383;SDS011;5238;43.508;4.980;2023-04-24T02:08:52;2.72;;;1.00;;
10383;SDS011;5238;43.508;4.980;2023-04-24T02:11:34;5.88;;;1.30;;
10383;SDS011;5238;43.508;4.980;2023-04-24T02:14:01;2.58;;;0.90;;
10383;SDS011;5238;43.508;4.980;2023-04-24T02:16:29;3.00;;;0.98;;
10383;SDS011;5238;43.508;4.980;2023-04-24T02:19:00;2.63;;;1.00;;
10383;SDS011;5238;43.508;4.980;2023-04-24T02:21:38;3.72;;;1.20;;
10383;SDS011;5238;43.508;4.980;2023-04-24T02:24:09;4.03;;;1.08;;
10383;SDS011;5238;43.508;4.980;2023-04-24T02:29:39;1.90;;;1.00;;
10383;SDS011;5238;43.508;4.980;2023-04-24T02:32:20;3.00;;;1.02;;
10383;SDS011;5238;43.508;4.980;2023-04-24T02:34:49;2.58;;;1.00;;
10383;SDS011;5238;43.508;4.980;2023-04-24T02:37:17;2.17;;;0.90;;
10383;SDS011;5238;43.508;4.980;2023-04-24T02:39:48;2.28;;;1.23;;
10383;SDS011;5238;43.508;4.980;2023-04-24T02:42:17;2.92;;;0.90;;
10383;SDS011;5238;43.508;4.980;2023-04-24T02:44:44;4.70;;;1.20;;
10383;SDS011;5238;43.508;4.980;2023-04-24T02:47:19;3.65;;;1.25;;
10383;SDS011;5238;43.508;4.980;2023-04-24T02:49:49;1.42;;;1.10;;
10383;SDS011;5238;43.508;4.980;2023-04-24T02:52:19;2.22;;;1.15;;
10383;SDS011;5238;43.508;4.980;2023-04-24T02:55:03;3.05;;;1.27;;
10383;SDS011;5238;43.508;4.980;2023-04-24T02:57:38;3.15;;;1.27;;
10383;SDS011;5238;43.508;4.980;2023-04-24T03:00:19;2.53;;;1.33;;
10383;SDS011;5238;43.508;4.980;2023-04-24T03:02:47;3.10;;;1.20;;
10383;SDS011;5238;43.508;4.980;2023-04-24T03:05:15;2.05;;;1.20;;
10383;SDS011;5238;43.508;4.980;2023-04-24T03:07:48;2.20;;;0.93;;
10383;SDS011;5238;43.508;4.980;2023-04-24T03:10:39;2.90;;;1.20;;
10383;SDS011;5238;43.508;4.980;2023-04-24T03:13:08;2.55;;;1.10;;
10383;SDS011;5238;43.508;4.980;2023-04-24T03:16:07;4.50;;;1.30;;
10383;SDS011;5238;43.508;4.980;2023-04-24T03:18:40;2.28;;;1.15;;
10383;SDS011;5238;43.508;4.980;2023-04-24T03:21:09;1.58;;;1.05;;
10383;SDS011;5238;43.508;4.980;2023-04-24T03:23:38;3.08;;;1.40;;
10383;SDS011;5238;43.508;4.980;2023-04-24T03:26:32;4.75;;;1.60;;
10383;SDS011;5238;43.508;4.980;2023-04-24T03:31:58;2.35;;;1.38;;
10383;SDS011;5238;43.508;4.980;2023-04-24T03:34:25;3.42;;;1.52;;
10383;SDS011;5238;43.508;4.980;2023-04-24T03:36:54;3.58;;;1.30;;
10383;SDS011;5238;43.508;4.980;2023-04-24T03:39:23;2.47;;;1.30;;
10383;SDS011;5238;43.508;4.980;2023-04-24T03:42:07;2.60;;;1.10;;
10383;SDS011;5238;43.508;4.980;2023-04-24T03:44:49;3.58;;;1.48;;
10383;SDS011;5238;43.508;4.980;2023-04-24T03:47:34;2.30;;;1.17;;
10383;SDS011;5238;43.508;4.980;2023-04-24T03:50:07;6.00;;;1.35;;
10383;SDS011;5238;43.508;4.980;2023-04-24T03:52:48;3.53;;;1.23;;
10383;SDS011;5238;43.508;4.980;2023-04-24T03:55:26;6.18;;;1.63;;
10383;SDS011;5238;43.508;4.980;2023-04-24T03:57:55;4.75;;;1.15;;
10383;SDS011;5238;43.508;4.980;2023-04-24T04:03:17;2.85;;;0.98;;
10383;SDS011;5238;43.508;4.980;2023-04-24T04:05:44;5.60;;;1.10;;
10383;SDS011;5238;43.508;4.980;2023-04-24T04:08:12;3.97;;;1.30;;
10383;SDS011;5238;43.508;4.980;2023-04-24T04:10:43;5.25;;;1.50;;
10383;SDS011;5238;43.508;4.980;2023-04-24T04:13:13;2.05;;;1.13;;
10383;SDS011;5238;43.508;4.980;2023-04-24T04:16:02;2.25;;;1.10;;
10383;SDS011;5238;43.508;4.980;2023-04-24T04:18:44;3.67;;;1.20;;
10383;SDS011;5238;43.508;4.980;2023-04-24T04:21:26;2.53;;;1.42;;
10383;SDS011;5238;43.508;4.980;2023-04-24T04:24:06;1.90;;;1.10;;
10383;SDS011;5238;43.508;4.980;2023-04-24T04:26:34;2.92;;;1.30;;
10383;SDS011;5238;43.508;4.980;2023-04-24T04:29:03;4.22;;;1.23;;
10383;SDS011;5238;43.508;4.980;2023-04-24T04:31:48;3.83;;;1.30;;
10383;SDS011;5238;43.508;4.980;2023-04-24T04:34:28;7.55;;;2.35;;
10383;SDS011;5238;43.508;4.980;2023-04-24T04:36:57;5.65;;;1.55;;
10383;SDS011;5238;43.508;4.980;2023-04-24T04:39:46;4.75;;;1.40;;
10383;SDS011;5238;43.508;4.980;2023-04-24T04:42:19;3.85;;;1.85;;
10383;SDS011;5238;43.508;4.980;2023-04-24T04:44:54;2.75;;;1.20;;
10383;SDS011;5238;43.508;4.980;2023-04-24T04:50:28;7.75;;;1.50;;
10383;SDS011;5238;43.508;4.980;2023-04-24T04:52:56;3.13;;;1.27;;
10383;SDS011;5238;43.508;4.980;2023-04-24T04:55:23;4.35;;;1.13;;
10383;SDS011;5238;43.508;4.980;2023-04-24T04:57:52;5.90;;;1.58;;
10383;SDS011;5238;43.508;4.980;2023-04-24T05:00:34;6.20;;;1.35;;
10383;SDS011;5238;43.508;4.980;2023-04-24T05:03:20;2.63;;;1.15;;
10383;SDS011;5238;43.508;4.980;2023-04-24T05:05:47;3.35;;;1.35;;
10383;SDS011;5238;43.508;4.980;2023-04-24T05:08:14;5.32;;;1.55;;
10383;SDS011;5238;43.508;4.980;2023-04-24T05:10:41;6.75;;;1.50;;
10383;SDS011;5238;43.508;4.980;2023-04-24T05:13:09;5.43;;;1.50;;
10383;SDS011;5238;43.508;4.980;2023-04-24T05:15:50;4.18;;;1.63;;
10383;SDS011;5238;43.508;4.980;2023-04-24T05:18:26;8.93;;;1.90;;
10383;SDS011;5238;43.508;4.980;2023-04-24T05:20:56;4.88;;;1.30;;
10383;SDS011;5238;43.508;4.980;2023-04-24T05:23:24;6.00;;;1.60;;
10383;SDS011;5238;43.508;4.980;2023-04-24T05:26:05;4.93;;;1.40;;
10383;SDS011;5238;43.508;4.980;2023-04-24T05:28:33;4.63;;;1.63;;
10383;SDS011;5238;43.508;4.980;2023-04-24T05:31:01;4.35;;;1.40;;
10383;SDS011;5238;43.508;4.980;2023-04-24T05:33:55;4.25;;;1.90;;
10383;SDS011;5238;43.508;4.980;2023-04-24T05:36:24;3.13;;;1.42;;
10383;SDS011;5238;43.508;4.980;2023-04-24T05:38:53;5.60;;;1.77;;
10383;SDS011;5238;43.508;4.980;2023-04-24T05:41:20;11.05;;;1.58;;
10383;SDS011;5238;43.508;4.980;2023-04-24T05:43:47;6.90;;;1.65;;
10383;SDS011;5238;43.508;4.980;2023-04-24T05:46:14;5.30;;;1.52;;
10383;SDS011;5238;43.508;4.980;2023-04-24T05:48:41;5.80;;;1.58;;
10383;SDS011;5238;43.508;4.980;2023-04-24T05:51:11;5.70;;;1.33;;
10383;SDS011;5238;43.508;4.980;2023-04-24T05:53:54;5.95;;;1.30;;
10383;SDS011;5238;43.508;4.980;2023-04-24T05:56:32;5.22;;;1.55;;
10383;SDS011;5238;43.508;4.980;2023-04-24T05:59:13;6.43;;;1.48;;
10383;SDS011;5238;43.508;4.980;2023-04-24T06:01:46;5.10;;;1.60;;
10383;SDS011;5238;43.508;4.980;2023-04-24T06:04:28;6.07;;;1.85;;
10383;SDS011;5238;43.508;4.980;2023-04-24T06:06:57;6.22;;;1.33;;
10383;SDS011;5238;43.508;4.980;2023-04-24T06:09:24;7.30;;;1.52;;
10383;SDS011;5238;43.508;4.980;2023-04-24T06:11:51;6.22;;;1.42;;
10383;SDS011;5238;43.508;4.980;2023-04-24T06:14:18;4.53;;;1.30;;
10383;SDS011;5238;43.508;4.980;2023-04-24T06:16:45;3.88;;;1.50;;
10383;SDS011;5238;43.508;4.980;2023-04-24T06:19:12;4.68;;;1.55;;
10383;SDS011;5238;43.508;4.980;2023-04-24T06:21:44;4.03;;;1.23;;
10383;SDS011;5238;43.508;4.980;2023-04-24T06:24:14;4.68;;;1.55;;
10383;SDS011;5238;43.508;4.980;2023-04-24T06:26:47;4.93;;;1.05;;
10383;SDS011;5238;43.508;4.980;2023-04-24T06:29:16;4.32;;;1.20;;
10383;SDS011;5238;43.508;4.980;2023-04-24T06:32:06;5.43;;;1.58;;
10383;SDS011;5238;43.508;4.980;2023-04-24T06:34:41;4.70;;;1.27;;
10383;SDS011;5238;43.508;4.980;2023-04-24T06:37:34;4.30;;;1.40;;
10383;SDS011;5238;43.508;4.980;2023-04-24T06:40:05;5.90;;;1.33;;
10383;SDS011;5238;43.508;4.980;2023-04-24T06:42:50;3.80;;;1.35;;
10383;SDS011;5238;43.508;4.980;2023-04-24T06:45:20;6.68;;;1.35;;
10383;SDS011;5238;43.508;4.980;2023-04-24T06:47:49;4.95;;;1.20;;
10383;SDS011;5238;43.508;4.980;2023-04-24T06:50:16;6.70;;;1.40;;
10383;SDS011;5238;43.508;4.980;2023-04-24T06:52:44;7.63;;;1.88;;
10383;SDS011;5238;43.508;4.980;2023-04-24T06:55:30;3.78;;;1.08;;
10383;SDS011;5238;43.508;4.980;2023-04-24T06:57:58;7.45;;;1.48;;
10383;SDS011;5238;43.508;4.980;2023-04-24T07:00:31;5.43;;;1.40;;
10383;SDS011;5238;43.508;4.980;2023-04-24T07:03:00;4.07;;;1.42;;
10383;SDS011;5238;43.508;4.980;2023-04-24T07:05:36;5.32;;;1.35;;
10383;SDS011;5238;43.508;4.980;2023-04-24T07:08:08;6.05;;;1.70;;
10383;SDS011;5238;43.508;4.980;2023-04-24T07:10:43;4.00;;;1.25;;
10383;SDS011;5238;43.508;4.980;2023-04-24T07:13:18;4.70;;;1.40;;
10383;SDS011;5238;43.508;4.980;2023-04-24T07:15:46;4.43;;;1.45;;
10383;SDS011;5238;43.508;4.980;2023-04-24T07:18:15;3.80;;;1.30;;
10383;SDS011;5238;43.508;4.980;2023-04-24T07:20:46;1.33;;;0.88;;
10383;SDS011;5238;43.508;4.980;2023-04-24T07:23:17;5.78;;;1.42;;
10383;SDS011;5238;43.508;4.980;2023-04-24T07:25:49;5.07;;;1.30;;
10383;SDS011;5238;43.508;4.980;2023-04-24T07:28:20;3.65;;;1.35;;
10383;SDS011;5238;43.508;4.980;2023-04-24T07:30:58;4.00;;;1.17;;
10383;SDS011;5238;43.508;4.980;2023-04-24T07:33:32;6.85;;;1.42;;
10383;SDS011;5238;43.508;4.980;2023-04-24T07:36:13;4.07;;;1.33;;
10383;SDS011;5238;43.508;4.980;2023-04-24T07:38:54;6.88;;;1.40;;
10383;SDS011;5238;43.508;4.980;2023-04-24T07:41:28;4.72;;;1.35;;
10383;SDS011;5238;43.508;4.980;2023-04-24T07:43:56;4.57;;;1.27;;
10383;SDS011;5238;43.508;4.980;2023-04-24T07:46:25;3.05;;;1.10;;
10383;SDS011;5238;43.508;4.980;2023-04-24T07:49:02;8.02;;;1.40;;
10383;SDS011;5238;43.508;4.980;2023-04-24T07:51:52;4.00;;;1.10;;
10383;SDS011;5238;43.508;4.980;2023-04-24T07:54:25;6.13;;;1.27;;
10383;SDS011;5238;43.508;4.980;2023-04-24T07:56:57;5.13;;;2.28;;
10383;SDS011;5238;43.508;4.980;2023-04-24T07:59:39;3.42;;;1.10;;
10383;SDS011;5238;43.508;4.980;2023-04-24T08:02:06;4.03;;;1.30;;
10383;SDS011;5238;43.508;4.980;2023-04-24T08:04:34;4.80;;;1.20;;
10383;SDS011;5238;43.508;4.980;2023-04-24T08:07:13;5.55;;;1.40;;
10383;SDS011;5238;43.508;4.980;2023-04-24T08:09:53;4.53;;;1.40;;
10383;SDS011;5238;43.508;4.980;2023-04-24T08:12:40;1.25;;;0.82;;
10383;SDS011;5238;43.508;4.980;2023-04-24T08:15:09;4.07;;;1.17;;
10383;SDS011;5238;43.508;4.980;2023-04-24T08:17:52;4.95;;;1.45;;
10383;SDS011;5238;43.508;4.980;2023-04-24T08:20:34;3.95;;;1.30;;
10383;SDS011;5238;43.508;4.980;2023-04-24T08:23:08;2.15;;;0.98;;
10383;SDS011;5238;43.508;4.980;2023-04-24T08:25:39;2.50;;;1.15;;
10383;SDS011;5238;43.508;4.980;2023-04-24T08:28:12;5.07;;;1.45;;
10383;SDS011;5238;43.508;4.980;2023-04-24T08:30:53;5.10;;;1.58;;
10383;SDS011;5238;43.508;4.980;2023-04-24T08:33:29;4.85;;;1.20;;
10383;SDS011;5238;43.508;4.980;2023-04-24T08:36:12;3.63;;;1.10;;
10383;SDS011;5238;43.508;4.980;2023-04-24T08:38:40;3.88;;;1.27;;
10383;SDS011;5238;43.508;4.980;2023-04-24T08:41:08;4.00;;;1.55;;
10383;SDS011;5238;43.508;4.980;2023-04-24T08:43:37;2.38;;;1.20;;
10383;SDS011;5238;43.508;4.980;2023-04-24T08:46:06;3.78;;;1.60;;
10383;SDS011;5238;43.508;4.980;2023-04-24T08:48:35;3.53;;;1.30;;
10383;SDS011;5238;43.508;4.980;2023-04-24T08:51:08;5.65;;;1.40;;
10383;SDS011;5238;43.508;4.980;2023-04-24T08:53:36;3.10;;;1.52;;
10383;SDS011;5238;43.508;4.980;2023-04-24T08:56:04;2.92;;;1.25;;
10383;SDS011;5238;43.508;4.980;2023-04-24T08:58:35;4.10;;;1.88;;
10383;SDS011;5238;43.508;4.980;2023-04-24T09:01:16;5.47;;;2.00;;
10383;SDS011;5238;43.508;4.980;2023-04-24T09:04:02;4.15;;;1.25;;
10383;SDS011;5238;43.508;4.980;2023-04-24T09:06:45;3.67;;;1.40;;
10383;SDS011;5238;43.508;4.980;2023-04-24T09:09:26;2.85;;;1.10;;
10383;SDS011;5238;43.508;4.980;2023-04-24T09:12:07;2.78;;;1.25;;
10383;SDS011;5238;43.508;4.980;2023-04-24T09:14:40;3.05;;;1.15;;
10383;SDS011;5238;43.508;4.980;2023-04-24T09:17:10;3.88;;;1.27;;
10383;SDS011;5238;43.508;4.980;2023-04-24T09:19:37;2.42;;;1.00;;
10383;SDS011;5238;43.508;4.980;2023-04-24T09:22:13;3.53;;;1.10;;
10383;SDS011;5238;43.508;4.980;2023-04-24T09:24:41;5.28;;;1.23;;
10383;SDS011;5238;43.508;4.980;2023-04-24T09:27:10;3.28;;;1.10;;
10383;SDS011;5238;43.508;4.980;2023-04-24T09:29:37;4.28;;;1.17;;
10383;SDS011;5238;43.508;4.980;2023-04-24T09:32:19;2.35;;;1.30;;
10383;SDS011;5238;43.508;4.980;2023-04-24T09:34:47;6.03;;;1.40;;
10383;SDS011;5238;43.508;4.980;2023-04-24T09:37:27;2.75;;;1.20;;
10383;SDS011;5238;43.508;4.980;2023-04-24T09:40:07;3.10;;;1.15;;
10383;SDS011;5238;43.508;4.980;2023-04-24T09:42:36;2.85;;;1.10;;
10383;SDS011;5238;43.508;4.980;2023-04-24T09:45:15;2.35;;;1.42;;
10383;SDS011;5238;43.508;4.980;2023-04-24T09:47:51;3.53;;;0.80;;
10383;SDS011;5238;43.508;4.980;2023-04-24T09:50:20;0.77;;;0.77;;
10383;SDS011;5238;43.508;4.980;2023-04-24T09:52:58;1.55;;;0.65;;
10383;SDS011;5238;43.508;4.980;2023-04-24T09:55:30;1.15;;;0.50;;
10383;SDS011;5238;43.508;4.980;2023-04-24T09:58:11;1.35;;;1.05;;
10383;SDS011;5238;43.508;4.980;2023-04-24T10:00:41;1.67;;;1.10;;
10383;SDS011;5238;43.508;4.980;2023-04-24T10:03:14;1.60;;;1.00;;
10383;SDS011;5238;43.508;4.980;2023-04-24T10:05:45;1.20;;;0.70;;
10383;SDS011;5238;43.508;4.980;2023-04-24T10:08:32;1.30;;;0.88;;
10383;SDS011;5238;43.508;4.980;2023-04-24T10:11:02;2.67;;;0.95;;
10383;SDS011;5238;43.508;4.980;2023-04-24T10:13:36;0.98;;;0.85;;
10383;SDS011;5238;43.508;4.980;2023-04-24T10:16:09;2.33;;;0.90;;
10383;SDS011;5238;43.508;4.980;2023-04-24T10:18:42;2.03;;;0.77;;
10383;SDS011;5238;43.508;4.980;2023-04-24T10:21:17;1.88;;;0.98;;
10383;SDS011;5238;43.508;4.980;2023-04-24T10:23:47;1.25;;;0.80;;
10383;SDS011;5238;43.508;4.980;2023-04-24T10:26:17;4.32;;;1.00;;
10383;SDS011;5238;43.508;4.980;2023-04-24T10:28:50;1.65;;;0.90;;
10383;SDS011;5238;43.508;4.980;2023-04-24T10:31:25;1.73;;;0.98;;
10383;SDS011;5238;43.508;4.980;2023-04-24T10:34:08;1.65;;;0.80;;
10383;SDS011;5238;43.508;4.980;2023-04-24T10:36:50;1.77;;;0.70;;
10383;SDS011;5238;43.508;4.980;2023-04-24T10:39:27;1.83;;;0.70;;
10383;SDS011;5238;43.508;4.980;2023-04-24T10:41:55;1.92;;;0.70;;
10383;SDS011;5238;43.508;4.980;2023-04-24T10:44:40;1.73;;;0.82;;
10383;SDS011;5238;43.508;4.980;2023-04-24T10:47:13;0.52;;;0.52;;
10383;SDS011;5238;43.508;4.980;2023-04-24T10:49:44;2.20;;;0.77;;
10383;SDS011;5238;43.508;4.980;2023-04-24T10:52:13;1.35;;;0.73;;
10383;SDS011;5238;43.508;4.980;2023-04-24T10:54:42;2.25;;;0.70;;
10383;SDS011;5238;43.508;4.980;2023-04-24T10:57:26;2.03;;;0.77;;
10383;SDS011;5238;43.508;4.980;2023-04-24T11:00:13;3.42;;;0.85;;
10383;SDS011;5238;43.508;4.980;2023-04-24T11:02:54;1.73;;;0.70;;
10383;SDS011;5238;43.508;4.980;2023-04-24T11:05:23;1.50;;;0.63;;
10383;SDS011;5238;43.508;4.980;2023-04-24T11:08:23;4.32;;;0.60;;
10383;SDS011;5238;43.508;4.980;2023-04-24T11:10:55;3.45;;;0.80;;
10383;SDS011;5238;43.508;4.980;2023-04-24T11:13:31;1.15;;;0.77;;
10383;SDS011;5238;43.508;4.980;2023-04-24T11:16:42;1.83;;;0.73;;
10383;SDS011;5238;43.508;4.980;2023-04-24T11:19:20;0.88;;;0.55;;
10383;SDS011;5238;43.508;4.980;2023-04-24T11:22:02;1.10;;;0.60;;
10383;SDS011;5238;43.508;4.980;2023-04-24T11:24:31;2.05;;;0.70;;
10383;SDS011;5238;43.508;4.980;2023-04-24T11:27:01;2.38;;;0.70;;
10383;SDS011;5238;43.508;4.980;2023-04-24T11:29:39;0.90;;;0.60;;
10383;SDS011;5238;43.508;4.980;2023-04-24T11:32:19;1.40;;;0.73;;
10383;SDS011;5238;43.508;4.980;2023-04-24T11:34:53;3.55;;;0.60;;
10383;SDS011;5238;43.508;4.980;2023-04-24T11:37:22;1.10;;;0.60;;
10383;SDS011;5238;43.508;4.980;2023-04-24T11:39:57;1.80;;;0.60;;
10383;SDS011;5238;43.508;4.980;2023-04-24T11:42:35;3.90;;;1.00;;
10383;SDS011;5238;43.508;4.980;2023-04-24T11:45:07;0.85;;;0.60;;
10383;SDS011;5238;43.508;4.980;2023-04-24T11:47:39;0.68;;;0.68;;
10383;SDS011;5238;43.508;4.980;2023-04-24T11:50:12;2.05;;;0.93;;
10383;SDS011;5238;43.508;4.980;2023-04-24T11:52:53;2.28;;;0.57;;
10383;SDS011;5238;43.508;4.980;2023-04-24T11:55:31;1.52;;;0.95;;
10383;SDS011;5238;43.508;4.980;2023-04-24T11:57:59;0.93;;;0.60;;
10383;SDS011;5238;43.508;4.980;2023-04-24T12:00:27;1.20;;;0.73;;
10383;SDS011;5238;43.508;4.980;2023-04-24T12:03:03;0.55;;;0.50;;
10383;SDS011;5238;43.508;4.980;2023-04-24T12:05:33;0.65;;;0.52;;
10383;SDS011;5238;43.508;4.980;2023-04-24T12:08:01;1.42;;;0.60;;
10383;SDS011;5238;43.508;4.980;2023-04-24T12:10:28;1.63;;;0.70;;
10383;SDS011;5238;43.508;4.980;2023-04-24T12:12:56;3.05;;;0.70;;
10383;SDS011;5238;43.508;4.980;2023-04-24T12:15:25;1.25;;;0.75;;
10383;SDS011;5238;43.508;4.980;2023-04-24T12:17:53;0.68;;;0.68;;
10383;SDS011;5238;43.508;4.980;2023-04-24T12:20:23;0.73;;;0.60;;
10383;SDS011;5238;43.508;4.980;2023-04-24T12:22:53;1.67;;;0.80;;
10383;SDS011;5238;43.508;4.980;2023-04-24T12:25:22;1.35;;;0.70;;
10383;SDS011;5238;43.508;4.980;2023-04-24T12:27:52;1.95;;;0.70;;
10383;SDS011;5238;43.508;4.980;2023-04-24T12:30:21;2.03;;;0.60;;
10383;SDS011;5238;43.508;4.980;2023-04-24T12:32:53;1.70;;;0.70;;
10383;SDS011;5238;43.508;4.980;2023-04-24T12:35:21;1.90;;;0.82;;
10383;SDS011;5238;43.508;4.980;2023-04-24T12:37:50;0.90;;;0.68;;
10383;SDS011;5238;43.508;4.980;2023-04-24T12:40:19;2.08;;;0.82;;
10383;SDS011;5238;43.508;4.980;2023-04-24T12:42:48;0.70;;;0.60;;
10383;SDS011;5238;43.508;4.980;2023-04-24T12:45:16;2.25;;;0.70;;
10383;SDS011;5238;43.508;4.980;2023-04-24T12:47:45;1.75;;;0.70;;
10383;SDS011;5238;43.508;4.980;2023-04-24T12:50:15;1.23;;;0.80;;
10383;SDS011;5238;43.508;4.980;2023-04-24T12:52:44;2.13;;;0.88;;
10383;SDS011;5238;43.508;4.980;2023-04-24T12:55:12;0.77;;;0.57;;
10383;SDS011;5238;43.508;4.980;2023-04-24T12:57:44;1.75;;;0.77;;
10383;SDS011;5238;43.508;4.980;2023-04-24T13:00:20;1.30;;;0.60;;
10383;SDS011;5238;43.508;4.980;2023-04-24T13:02:55;1.80;;;0.70;;
10383;SDS011;5238;43.508;4.980;2023-04-24T13:05:22;0.85;;;0.70;;
10383;SDS011;5238;43.508;4.980;2023-04-24T13:07:50;2.03;;;0.80;;
10383;SDS011;5238;43.508;4.980;2023-04-24T13:10:17;2.20;;;0.82;;
10383;SDS011;5238;43.508;4.980;2023-04-24T13:12:45;1.15;;;0.60;;
10383;SDS011;5238;43.508;4.980;2023-04-24T13:15:12;1.70;;;0.65;;
10383;SDS011;5238;43.508;4.980;2023-04-24T13:17:50;1.50;;;0.88;;
10383;SDS011;5238;43.508;4.980;2023-04-24T13:20:17;4.78;;;1.13;;
10383;SDS011;5238;43.508;4.980;2023-04-24T13:22:48;2.95;;;0.80;;
10383;SDS011;5238;43.508;4.980;2023-04-24T13:25:17;1.80;;;0.70;;
10383;SDS011;5238;43.508;4.980;2023-04-24T13:27:50;4.00;;;0.93;;
10383;SDS011;5238;43.508;4.980;2023-04-24T13:30:20;1.65;;;0.70;;
10383;SDS011;5238;43.508;4.980;2023-04-24T13:32:47;1.30;;;0.80;;
10383;SDS011;5238;43.508;4.980;2023-04-24T13:35:14;2.38;;;0.77;;
10383;SDS011;5238;43.508;4.980;2023-04-24T13:37:41;2.53;;;0.80;;
10383;SDS011;5238;43.508;4.980;2023-04-24T13:40:09;1.45;;;0.88;;
10383;SDS011;5238;43.508;4.980;2023-04-24T13:42:36;2.17;;;0.80;;
10383;SDS011;5238;43.508;4.980;2023-04-24T13:45:06;3.00;;;0.90;;
10383;SDS011;5238;43.508;4.980;2023-04-24T13:47:36;3.85;;;0.80;;
10383;SDS011;5238;43.508;4.980;2023-04-24T13:50:06;2.47;;;0.90;;
10383;SDS011;5238;43.508;4.980;2023-04-24T13:52:33;4.97;;;0.80;;
10383;SDS011;5238;43.508;4.980;2023-04-24T13:55:00;1.73;;;0.80;;
10383;SDS011;5238;43.508;4.980;2023-04-24T13:57:27;1.00;;;0.77;;
10383;SDS011;5238;43.508;4.980;2023-04-24T13:59:55;2.15;;;0.70;;
10383;SDS011;5238;43.508;4.980;2023-04-24T14:02:27;1.23;;;0.68;;
10383;SDS011;5238;43.508;4.980;2023-04-24T14:04:54;1.17;;;0.70;;
10383;SDS011;5238;43.508;4.980;2023-04-24T14:07:21;1.17;;;0.70;;
10383;SDS011;5238;43.508;4.980;2023-04-24T14:09:48;2.67;;;1.05;;
10383;SDS011;5238;43.508;4.980;2023-04-24T14:12:16;1.13;;;0.73;;
10383;SDS011;5238;43.508;4.980;2023-04-24T14:14:45;1.90;;;0.88;;
10383;SDS011;5238;43.508;4.980;2023-04-24T14:17:18;1.98;;;0.85;;
10383;SDS011;5238;43.508;4.980;2023-04-24T14:19:57;2.13;;;0.80;;
10383;SDS011;5238;43.508;4.980;2023-04-24T14:22:34;3.92;;;0.90;;
10383;SDS011;5238;43.508;4.980;2023-04-24T14:25:08;1.10;;;0.80;;
10383;SDS011;5238;43.508;4.980;2023-04-24T14:27:37;1.35;;;0.90;;
10383;SDS011;5238;43.508;4.980;2023-04-24T14:30:12;3.85;;;0.98;;
10383;SDS011;5238;43.508;4.980;2023-04-24T14:32:48;2.72;;;1.08;;
10383;SDS011;5238;43.508;4.980;2023-04-24T14:35:17;1.52;;;0.75;;
10383;SDS011;5238;43.508;4.980;2023-04-24T14:37:51;2.65;;;0.98;;
10383;SDS011;5238;43.508;4.980;2023-04-24T14:40:21;2.85;;;1.00;;
10383;SDS011;5238;43.508;4.980;2023-04-24T14:42:50;1.90;;;0.93;;
10383;SDS011;5238;43.508;4.980;2023-04-24T14:45:17;5.50;;;0.90;;
10383;SDS011;5238;43.508;4.980;2023-04-24T14:47:46;1.20;;;0.85;;
10383;SDS011;5238;43.508;4.980;2023-04-24T14:50:13;1.42;;;0.82;;
10383;SDS011;5238;43.508;4.980;2023-04-24T14:52:42;2.38;;;1.13;;
10383;SDS011;5238;43.508;4.980;2023-04-24T14:55:09;1.95;;;0.88;;
10383;SDS011;5238;43.508;4.980;2023-04-24T14:57:37;1.67;;;0.85;;
10383;SDS011;5238;43.508;4.980;2023-04-24T15:00:04;3.58;;;0.90;;
10383;SDS011;5238;43.508;4.980;2023-04-24T15:02:42;2.65;;;1.00;;
10383;SDS011;5238;43.508;4.980;2023-04-24T15:05:10;1.45;;;0.90;;
10383;SDS011;5238;43.508;4.980;2023-04-24T15:07:39;4.72;;;1.13;;
10383;SDS011;5238;43.508;4.980;2023-04-24T15:10:10;1.88;;;0.90;;
10383;SDS011;5238;43.508;4.980;2023-04-24T15:12:43;2.25;;;0.90;;
10383;SDS011;5238;43.508;4.980;2023-04-24T15:15:24;1.30;;;0.90;;
10383;SDS011;5238;43.508;4.980;2023-04-24T15:17:55;4.47;;;1.23;;
10383;SDS011;5238;43.508;4.980;2023-04-24T15:20:23;2.05;;;0.80;;
10383;SDS011;5238;43.508;4.980;2023-04-24T15:22:53;2.83;;;1.13;;
10383;SDS011;5238;43.508;4.980;2023-04-24T15:25:24;3.05;;;0.90;;
10383;SDS011;5238;43.508;4.980;2023-04-24T15:27:54;8.15;;;1.15;;
10383;SDS011;5238;43.508;4.980;2023-04-24T15:30:22;2.33;;;1.00;;
10383;SDS011;5238;43.508;4.980;2023-04-24T15:32:57;7.35;;;1.05;;
10383;SDS011;5238;43.508;4.980;2023-04-24T15:35:26;1.65;;;1.10;;
10383;SDS011;5238;43.508;4.980;2023-04-24T15:38:02;6.22;;;1.70;;
10383;SDS011;5238;43.508;4.980;2023-04-24T15:40:37;3.65;;;1.00;;
10383;SDS011;5238;43.508;4.980;2023-04-24T15:43:10;2.83;;;0.90;;
10383;SDS011;5238;43.508;4.980;2023-04-24T15:45:38;2.47;;;1.00;;
10383;SDS011;5238;43.508;4.980;2023-04-24T15:48:05;3.25;;;1.10;;
10383;SDS011;5238;43.508;4.980;2023-04-24T15:50:32;1.60;;;0.80;;
10383;SDS011;5238;43.508;4.980;2023-04-24T15:52:59;2.10;;;0.90;;
10383;SDS011;5238;43.508;4.980;2023-04-24T15:55:28;6.18;;;1.00;;